createdAt,value
2023-09-09T00:00:51.135Z,90.82
2023-09-09T00:03:19.351Z,93.53
2023-09-09T00:05:46.263Z,92.40
2023-09-09T00:08:13.301Z,99.70
2023-09-09T00:10:40.319Z,99.05
2023-09-09T00:13:08.094Z,105.55
2023-09-09T00:15:35.208Z,98.85
2023-09-09T00:18:03.911Z,91.43
2023-09-09T00:20:35.537Z,106.93
2023-09-09T00:23:08.750Z,102.88
2023-09-09T00:25:40.511Z,107.85
2023-09-09T00:28:12.097Z,98.60
2023-09-09T00:30:39.859Z,98.13
2023-09-09T00:33:27.114Z,96.78
2023-09-09T00:35:54.024Z,94.22
2023-09-09T00:38:22.090Z,92.50
2023-09-09T00:41:12.980Z,99.32
2023-09-09T00:43:40.457Z,95.57
2023-09-09T00:46:10.772Z,96.13
2023-09-09T00:48:38.537Z,92.53
2023-09-09T00:51:11.526Z,98.70
2023-09-09T00:53:39.885Z,97.28
2023-09-09T00:56:07.574Z,99.57
2023-09-09T00:58:34.663Z,98.45
2023-09-09T01:01:04.245Z,99.60
2023-09-09T01:03:32.532Z,103.95
2023-09-09T01:06:01.312Z,100.60
2023-09-09T01:08:29.953Z,97.40
2023-09-09T01:10:57.312Z,99.07
2023-09-09T01:13:24.666Z,98.97
2023-09-09T01:15:54.960Z,98.78
2023-09-09T01:18:22.861Z,102.50
2023-09-09T01:20:59.588Z,101.45
2023-09-09T01:23:27.419Z,103.75
2023-09-09T01:25:54.374Z,106.25
2023-09-09T01:28:23.786Z,97.47
2023-09-09T01:30:51.400Z,95.07
2023-09-09T01:33:18.854Z,96.93
2023-09-09T01:35:46.685Z,94.78
2023-09-09T01:38:14.385Z,99.65
2023-09-09T01:40:41.474Z,101.32
2023-09-09T01:43:08.795Z,99.82
2023-09-09T01:45:36.786Z,100.13
2023-09-09T01:48:06.289Z,96.75
2023-09-09T01:50:33.612Z,99.95
2023-09-09T01:53:00.500Z,99.45
2023-09-09T01:55:27.524Z,101.18
2023-09-09T01:57:54.451Z,98.10
2023-09-09T02:00:21.653Z,102.03
2023-09-09T02:02:48.886Z,103.80
2023-09-09T02:05:16.154Z,97.65
2023-09-09T02:07:43.140Z,103.72
2023-09-09T02:10:13.305Z,98.95
2023-09-09T02:12:41.112Z,99.80
2023-09-09T02:15:12.460Z,97.70
2023-09-09T02:17:39.779Z,102.78
2023-09-09T02:20:07.470Z,104.25
2023-09-09T02:22:35.001Z,98.50
2023-09-09T02:25:02.242Z,98.45
2023-09-09T02:27:29.251Z,102.22
2023-09-09T02:29:56.149Z,108.60
2023-09-09T02:32:23.363Z,99.43
2023-09-09T02:34:51.850Z,97.13
2023-09-09T02:37:24.193Z,100.65
2023-09-09T02:42:21.604Z,96.53
2023-09-09T02:44:52.134Z,101.30
2023-09-09T02:47:20.285Z,105.05
2023-09-09T02:49:51.277Z,97.43
2023-09-09T02:52:19.537Z,99.47
2023-09-09T02:54:46.575Z,104.72
2023-09-09T02:57:14.152Z,102.07
2023-09-09T02:59:41.534Z,100.85
2023-09-09T03:02:11.789Z,101.65
2023-09-09T03:04:39.405Z,95.88
2023-09-09T03:07:06.699Z,100.45
2023-09-09T03:09:34.322Z,97.53
2023-09-09T03:12:02.762Z,98.60
2023-09-09T03:14:30.333Z,97.53
2023-09-09T03:16:59.817Z,100.70
2023-09-09T03:19:27.445Z,101.07
2023-09-09T03:21:54.523Z,98.55
2023-09-09T03:24:21.581Z,98.65
2023-09-09T03:26:48.808Z,103.13
2023-09-09T03:29:15.883Z,93.45
2023-09-09T03:31:43.192Z,93.82
2023-09-09T03:34:10.213Z,93.70
2023-09-09T03:36:37.236Z,93.88
2023-09-09T03:39:04.839Z,96.53
2023-09-09T03:41:32.284Z,89.03
2023-09-09T03:43:59.344Z,93.95
2023-09-09T03:46:26.794Z,93.05
2023-09-09T03:48:54.776Z,90.63
2023-09-09T03:51:21.874Z,94.40
2023-09-09T03:53:49.069Z,90.03
2023-09-09T03:56:18.440Z,90.35
2023-09-09T03:58:45.673Z,92.60
2023-09-09T04:01:13.963Z,90.93
2023-09-09T04:03:42.698Z,92.65
2023-09-09T04:06:14.800Z,100.93
2023-09-09T04:08:43.397Z,92.97
2023-09-09T04:11:12.001Z,89.22
2023-09-09T04:13:40.118Z,87.15
2023-09-09T04:16:08.368Z,86.20
2023-09-09T04:18:45.491Z,80.80
2023-09-09T04:21:15.591Z,80.82
2023-09-09T04:23:42.715Z,79.43
2023-09-09T04:26:10.069Z,83.82
2023-09-09T04:28:37.203Z,80.88
2023-09-09T04:31:04.927Z,81.63
2023-09-09T04:33:34.219Z,78.57
2023-09-09T04:36:01.803Z,81.97
2023-09-09T04:38:28.741Z,85.82
2023-09-09T04:40:55.994Z,77.53
2023-09-09T04:43:23.216Z,75.28
2023-09-09T04:45:50.550Z,77.47
2023-09-09T04:48:17.675Z,76.50
2023-09-09T04:50:45.076Z,75.25
2023-09-09T04:53:12.782Z,75.97
2023-09-09T04:55:39.861Z,74.47
2023-09-09T04:58:11.492Z,77.93
2023-09-09T05:00:39.455Z,77.80
2023-09-09T05:03:06.478Z,75.07
2023-09-09T05:05:33.848Z,72.13
2023-09-09T05:08:00.850Z,73.13
2023-09-09T05:10:30.652Z,69.88
2023-09-09T05:12:57.666Z,67.70
2023-09-09T05:15:24.819Z,61.92
2023-09-09T05:17:51.913Z,57.67
2023-09-09T05:20:19.161Z,58.38
2023-09-09T05:22:46.097Z,55.85
2023-09-09T05:25:13.122Z,54.95
2023-09-09T05:27:41.913Z,56.45
2023-09-09T05:30:09.168Z,54.03
2023-09-09T05:32:36.640Z,56.13
2023-09-09T05:35:04.715Z,57.22
2023-09-09T05:37:33.416Z,55.17
2023-09-09T05:40:04.088Z,56.17
2023-09-09T05:42:32.016Z,57.03
2023-09-09T05:44:59.070Z,54.22
2023-09-09T05:47:26.769Z,52.60
2023-09-09T05:49:53.850Z,52.17
2023-09-09T05:52:21.004Z,50.97
2023-09-09T05:54:48.095Z,51.78
2023-09-09T05:57:15.049Z,50.70
2023-09-09T05:59:42.421Z,48.60
2023-09-09T06:02:11.348Z,49.67
2023-09-09T06:04:38.572Z,49.78
2023-09-09T06:07:06.016Z,49.67
2023-09-09T06:09:33.731Z,47.97
2023-09-09T06:12:02.111Z,49.53
2023-09-09T06:14:29.707Z,48.80
2023-09-09T06:16:57.924Z,52.40
2023-09-09T06:19:25.176Z,51.30
2023-09-09T06:21:53.177Z,52.13
2023-09-09T06:24:21.648Z,53.30
2023-09-09T06:26:49.144Z,54.47
2023-09-09T06:29:16.309Z,55.10
2023-09-09T06:31:44.102Z,53.85
2023-09-09T06:34:12.363Z,58.88
2023-09-09T06:36:39.349Z,57.38
2023-09-09T06:39:06.403Z,60.40
2023-09-09T06:41:33.437Z,56.15
2023-09-09T06:44:00.543Z,59.60
2023-09-09T06:46:27.477Z,63.72
2023-09-09T06:48:54.464Z,66.15
2023-09-09T06:51:21.369Z,63.28
2023-09-09T06:53:49.759Z,60.78
2023-09-09T06:56:18.853Z,65.65
2023-09-09T06:58:46.040Z,64.47
2023-09-09T07:01:13.209Z,63.53
2023-09-09T07:03:42.000Z,71.35
2023-09-09T07:06:09.587Z,68.15
2023-09-09T07:08:40.683Z,77.55
2023-09-09T07:11:08.332Z,75.25
2023-09-09T07:13:35.539Z,85.25
2023-09-09T07:16:02.985Z,83.82
2023-09-09T07:18:30.013Z,83.82
2023-09-09T07:21:00.970Z,84.30
2023-09-09T07:23:27.972Z,83.18
2023-09-09T07:25:55.151Z,88.55
2023-09-09T07:28:24.412Z,94.10
2023-09-09T07:30:52.707Z,91.85
2023-09-09T07:33:20.347Z,87.88
2023-09-09T07:35:47.537Z,91.45
2023-09-09T07:38:15.254Z,79.28
2023-09-09T07:40:42.921Z,87.20
2023-09-09T07:43:11.158Z,84.22
2023-09-09T07:45:38.153Z,80.05
2023-09-09T07:48:06.321Z,70.57
2023-09-09T07:50:33.241Z,70.28
2023-09-09T07:53:00.342Z,64.38
2023-09-09T07:55:27.700Z,63.22
2023-09-09T07:57:55.941Z,56.95
2023-09-09T08:00:23.976Z,48.45
2023-09-09T08:02:51.186Z,49.97
2023-09-09T08:05:18.247Z,48.22
2023-09-09T08:07:45.254Z,46.53
2023-09-09T08:10:13.860Z,42.65
2023-09-09T08:12:41.323Z,39.10
2023-09-09T08:15:09.744Z,37.08
2023-09-09T08:17:37.056Z,38.40
2023-09-09T08:20:08.729Z,38.65
2023-09-09T08:22:36.485Z,36.55
2023-09-09T08:25:04.279Z,34.00
2023-09-09T08:27:31.300Z,33.20
2023-09-09T08:29:58.616Z,28.25
2023-09-09T08:32:25.917Z,31.45
2023-09-09T08:34:56.124Z,30.42
2023-09-09T08:37:23.505Z,30.25
2023-09-09T08:39:54.501Z,25.70
2023-09-09T08:42:46.719Z,27.40
2023-09-09T08:45:20.953Z,26.70
2023-09-09T08:47:49.335Z,23.95
2023-09-09T08:50:17.389Z,21.35
2023-09-09T08:52:45.412Z,18.00
2023-09-09T08:55:12.339Z,19.30
2023-09-09T08:57:39.964Z,18.05
2023-09-09T09:00:07.746Z,20.08
2023-09-09T09:02:35.749Z,20.58
2023-09-09T09:05:04.975Z,22.50
2023-09-09T09:07:33.714Z,19.98
2023-09-09T09:10:00.791Z,17.42
2023-09-09T09:12:29.656Z,15.27
2023-09-09T09:14:56.549Z,14.65
2023-09-09T09:17:25.011Z,14.57
2023-09-09T09:19:52.812Z,13.27
2023-09-09T09:22:19.820Z,12.52
2023-09-09T09:24:47.369Z,14.27
2023-09-09T09:27:15.616Z,13.15
2023-09-09T09:29:49.297Z,13.98
2023-09-09T09:32:17.693Z,11.80
2023-09-09T09:34:44.904Z,12.23
2023-09-09T09:37:13.165Z,11.52
2023-09-09T09:39:40.771Z,9.55
2023-09-09T09:42:11.621Z,8.68
2023-09-09T09:44:38.956Z,9.93
2023-09-09T09:47:07.804Z,10.98
2023-09-09T09:49:35.720Z,11.52
2023-09-09T09:52:04.511Z,8.88
2023-09-09T09:54:34.436Z,9.15
2023-09-09T09:57:03.081Z,12.23
2023-09-09T09:59:35.406Z,10.23
2023-09-09T10:02:04.487Z,10.55
2023-09-09T10:04:40.223Z,8.23
2023-09-09T10:07:11.796Z,8.70
2023-09-09T10:10:11.891Z,7.65
2023-09-09T10:12:48.984Z,7.90
2023-09-09T10:15:20.904Z,9.02
2023-09-09T10:17:50.938Z,7.95
2023-09-09T10:20:18.961Z,9.10
2023-09-09T10:22:49.055Z,9.43
2023-09-09T10:25:16.648Z,8.68
2023-09-09T10:27:44.027Z,9.48
2023-09-09T10:30:11.863Z,9.43
2023-09-09T10:32:39.808Z,12.25
2023-09-09T10:35:08.096Z,9.80
2023-09-09T10:37:39.381Z,12.35
2023-09-09T10:40:08.387Z,10.20
2023-09-09T10:42:39.160Z,9.52
2023-09-09T10:45:32.335Z,15.70
2023-09-09T10:48:03.889Z,19.63
2023-09-09T10:53:28.409Z,12.48
2023-09-09T10:56:00.416Z,11.77
2023-09-09T10:58:39.123Z,9.55
2023-09-09T11:01:10.912Z,11.65
2023-09-09T11:03:50.514Z,9.15
2023-09-09T11:06:33.170Z,9.15
2023-09-09T11:09:03.831Z,9.40
2023-09-09T11:11:36.483Z,9.82
2023-09-09T11:14:05.679Z,9.07
2023-09-09T11:16:42.583Z,9.38
2023-09-09T11:19:14.367Z,10.60
2023-09-09T11:21:54.255Z,9.02
2023-09-09T11:24:21.536Z,9.57
2023-09-09T11:26:50.086Z,11.15
2023-09-09T11:29:30.255Z,8.73
2023-09-09T11:32:04.356Z,12.77
2023-09-09T11:34:34.126Z,10.15
2023-09-09T11:37:04.989Z,9.00
2023-09-09T11:39:42.865Z,10.93
2023-09-09T11:42:10.037Z,8.70
2023-09-09T11:44:42.206Z,8.52
2023-09-09T11:47:09.838Z,9.63
2023-09-09T11:49:40.911Z,8.52
2023-09-09T11:52:08.062Z,9.25
2023-09-09T11:54:35.269Z,8.25
2023-09-09T11:57:10.152Z,8.43
2023-09-09T11:59:51.582Z,8.05
2023-09-09T12:02:23.175Z,8.80
2023-09-09T12:04:58.629Z,8.80
2023-09-09T12:07:37.020Z,8.63
2023-09-09T12:10:06.683Z,8.63
2023-09-09T12:12:34.172Z,7.85
2023-09-09T12:15:02.348Z,8.23
2023-09-09T12:17:30.389Z,7.75
2023-09-09T12:19:58.534Z,8.13
2023-09-09T12:22:36.404Z,8.15
2023-09-09T12:25:08.444Z,8.50
2023-09-09T12:33:10.934Z,8.30
2023-09-09T12:35:49.264Z,7.45
2023-09-09T12:38:18.639Z,8.23
2023-09-09T12:40:51.531Z,8.35
2023-09-09T12:43:28.466Z,8.48
2023-09-09T12:46:03.691Z,7.07
2023-09-09T12:48:30.779Z,7.03
2023-09-09T12:50:57.633Z,8.32
2023-09-09T12:53:24.722Z,8.60
2023-09-09T12:55:51.661Z,8.10
2023-09-09T12:58:18.821Z,7.47
2023-09-09T13:00:45.736Z,7.10
2023-09-09T13:03:14.989Z,6.80
2023-09-09T13:05:42.381Z,7.40
2023-09-09T13:08:09.464Z,7.00
2023-09-09T13:10:36.465Z,8.48
2023-09-09T13:13:03.515Z,7.80
2023-09-09T13:15:30.640Z,8.32
2023-09-09T13:17:57.696Z,7.20
2023-09-09T13:20:24.847Z,8.23
2023-09-09T13:22:51.864Z,7.85
2023-09-09T13:25:18.967Z,8.90
2023-09-09T13:27:46.107Z,7.20
2023-09-09T13:30:13.311Z,8.55
2023-09-09T13:32:42.255Z,8.48
2023-09-09T13:35:09.995Z,7.97
2023-09-09T13:37:37.208Z,7.50
2023-09-09T13:40:04.705Z,8.25
2023-09-09T13:42:33.205Z,7.18
2023-09-09T13:45:10.616Z,7.10
2023-09-09T13:47:40.188Z,7.55
2023-09-09T13:50:08.487Z,8.07
2023-09-09T13:52:35.492Z,7.03
2023-09-09T13:55:04.790Z,7.18
2023-09-09T13:57:33.666Z,8.25
2023-09-09T14:00:01.386Z,7.88
2023-09-09T14:02:29.937Z,7.85
2023-09-09T14:04:57.097Z,7.13
2023-09-09T14:07:24.155Z,7.85
2023-09-09T14:09:51.067Z,8.07
2023-09-09T14:12:17.997Z,7.93
2023-09-09T14:14:44.904Z,7.13
2023-09-09T14:17:12.079Z,8.27
2023-09-09T14:19:39.938Z,7.95
2023-09-09T14:22:07.007Z,8.00
2023-09-09T14:24:33.945Z,8.05
2023-09-09T14:27:01.169Z,7.97
2023-09-09T14:29:28.098Z,7.82
2023-09-09T14:31:55.260Z,7.85
2023-09-09T14:34:22.155Z,8.57
2023-09-09T14:36:49.165Z,8.82
2023-09-09T14:39:16.181Z,8.10
2023-09-09T14:41:43.456Z,7.78
2023-09-09T14:44:10.338Z,8.95
2023-09-09T14:46:37.562Z,7.22
2023-09-09T14:49:05.631Z,8.05
2023-09-09T14:51:34.451Z,8.63
2023-09-09T14:54:05.790Z,8.75
2023-09-09T14:56:33.428Z,7.57
2023-09-09T14:59:00.361Z,7.95
2023-09-09T15:01:27.708Z,9.05
2023-09-09T15:03:54.668Z,8.75
2023-09-09T15:06:22.976Z,7.95
2023-09-09T15:08:52.651Z,7.90
2023-09-09T15:11:21.213Z,8.77
2023-09-09T15:13:49.950Z,9.07
2023-09-09T15:16:21.304Z,8.00
2023-09-09T15:18:48.711Z,8.75
2023-09-09T15:21:16.808Z,8.25
2023-09-09T15:23:43.808Z,7.70
2023-09-09T15:26:11.074Z,8.30
2023-09-09T15:28:38.187Z,8.18
2023-09-09T15:31:06.845Z,8.60
2023-09-09T15:33:34.000Z,8.88
2023-09-09T15:36:01.138Z,8.55
2023-09-09T15:38:28.955Z,8.73
2023-09-09T15:40:56.257Z,8.90
2023-09-09T15:43:23.424Z,8.82
2023-09-09T15:45:53.307Z,7.97
2023-09-09T15:48:20.529Z,7.80
2023-09-09T15:50:47.460Z,9.30
2023-09-09T15:53:14.428Z,8.90
2023-09-09T15:55:44.928Z,8.98
2023-09-09T15:58:12.320Z,8.98
2023-09-09T16:00:39.708Z,9.13
2023-09-09T16:03:06.936Z,7.25
2023-09-09T16:05:34.772Z,8.02
2023-09-09T16:08:01.980Z,8.68
2023-09-09T16:10:29.435Z,7.85
2023-09-09T16:12:58.900Z,10.00
2023-09-09T16:15:26.074Z,8.98
2023-09-09T16:17:53.096Z,9.98
2023-09-09T16:20:20.165Z,10.43
2023-09-09T16:22:47.293Z,9.68
2023-09-09T16:25:14.511Z,9.95
2023-09-09T16:27:42.401Z,10.65
2023-09-09T16:30:11.811Z,9.98
2023-09-09T16:32:39.320Z,11.10
2023-09-09T16:35:07.472Z,11.23
2023-09-09T16:37:35.716Z,12.23
2023-09-09T16:40:02.920Z,12.88
2023-09-09T16:42:29.896Z,13.32
2023-09-09T16:44:56.963Z,13.80
2023-09-09T16:47:24.000Z,11.98
2023-09-09T16:49:52.247Z,11.27
2023-09-09T16:52:19.286Z,11.85
2023-09-09T16:54:46.357Z,12.23
2023-09-09T16:57:13.349Z,11.45
2023-09-09T16:59:41.147Z,11.63
2023-09-09T17:02:08.894Z,11.27
2023-09-09T17:04:36.062Z,13.80
2023-09-09T17:07:03.665Z,12.23
2023-09-09T17:09:31.720Z,11.88
2023-09-09T17:11:58.732Z,11.98
2023-09-09T17:14:25.642Z,11.27
2023-09-09T17:16:52.619Z,12.18
2023-09-09T17:19:19.670Z,12.20
2023-09-09T17:21:46.696Z,13.25
2023-09-09T17:24:13.848Z,12.32
2023-09-09T17:26:41.149Z,13.45
2023-09-09T17:29:08.108Z,13.35
2023-09-09T17:31:35.235Z,12.82
2023-09-09T17:34:02.349Z,12.10
2023-09-09T17:36:30.325Z,13.52
2023-09-09T17:39:23.726Z,13.75
2023-09-09T17:41:52.893Z,13.70
2023-09-09T17:44:19.722Z,13.93
2023-09-09T17:46:46.913Z,13.90
2023-09-09T17:49:13.810Z,14.48
2023-09-09T17:51:40.877Z,15.80
2023-09-09T17:54:07.782Z,13.80
2023-09-09T17:56:35.384Z,15.02
2023-09-09T17:59:02.617Z,13.60
2023-09-09T18:01:29.617Z,14.93
2023-09-09T18:03:58.244Z,14.10
2023-09-09T18:06:25.414Z,14.57
2023-09-09T18:08:53.146Z,15.75
2023-09-09T18:11:21.299Z,14.88
2023-09-09T18:13:49.006Z,13.80
2023-09-09T18:16:16.826Z,15.88
2023-09-09T18:18:43.901Z,20.10
2023-09-09T18:21:10.822Z,16.42
2023-09-09T18:23:38.399Z,16.60
2023-09-09T18:26:05.626Z,17.98
2023-09-09T18:28:33.191Z,16.27
2023-09-09T18:31:02.111Z,15.85
2023-09-09T18:33:29.669Z,16.63
2023-09-09T18:35:57.707Z,17.20
2023-09-09T18:38:25.298Z,15.93
2023-09-09T18:40:53.232Z,19.10
2023-09-09T18:43:21.018Z,18.98
2023-09-09T18:45:49.538Z,17.13
2023-09-09T18:48:17.585Z,18.33
2023-09-09T18:50:44.821Z,19.60
2023-09-09T18:53:11.886Z,19.48
2023-09-09T18:55:38.844Z,20.83
2023-09-09T18:58:05.900Z,20.25
2023-09-09T19:00:33.011Z,22.52
2023-09-09T19:03:01.741Z,19.52
2023-09-09T19:05:29.699Z,21.83
2023-09-09T19:07:56.921Z,21.52
2023-09-09T19:10:24.070Z,23.23
2023-09-09T19:12:51.036Z,21.50
2023-09-09T19:15:20.455Z,20.85
2023-09-09T19:17:47.552Z,22.05
2023-09-09T19:20:16.042Z,21.15
2023-09-09T19:22:43.482Z,21.20
2023-09-09T19:25:10.497Z,21.48
2023-09-09T19:27:37.519Z,22.15
2023-09-09T19:30:05.881Z,20.73
2023-09-09T19:32:33.487Z,22.05
2023-09-09T19:35:00.835Z,22.02
2023-09-09T19:37:28.048Z,22.55
2023-09-09T19:40:01.707Z,23.98
2023-09-09T19:42:29.480Z,23.90
2023-09-09T19:44:57.322Z,22.23
2023-09-09T19:47:26.553Z,22.75
2023-09-09T19:49:57.011Z,23.77
2023-09-09T19:52:24.178Z,24.15
2023-09-09T19:54:51.460Z,23.95
2023-09-09T19:57:18.537Z,24.60
2023-09-09T19:59:45.500Z,25.77
2023-09-09T20:02:13.391Z,28.55
2023-09-09T20:04:40.673Z,24.55
2023-09-09T20:07:07.767Z,24.05
2023-09-09T20:09:39.087Z,22.55
2023-09-09T20:12:06.766Z,24.55
2023-09-09T20:14:33.874Z,21.92
2023-09-09T20:17:00.962Z,23.08
2023-09-09T20:19:27.887Z,21.75
2023-09-09T20:21:55.019Z,21.50
2023-09-09T20:24:22.504Z,25.00
2023-09-09T20:26:50.155Z,23.98
2023-09-09T20:29:17.174Z,24.15
2023-09-09T20:31:44.112Z,23.63
2023-09-09T20:34:12.815Z,23.52
2023-09-09T20:36:39.805Z,21.95
2023-09-09T20:39:06.913Z,19.63
2023-09-09T20:41:36.136Z,18.98
2023-09-09T20:44:03.282Z,19.52
2023-09-09T20:46:30.311Z,19.20
2023-09-09T20:48:57.352Z,19.13
2023-09-09T20:51:24.262Z,19.58
2023-09-09T20:53:51.260Z,17.85
2023-09-09T20:56:19.057Z,19.02
2023-09-09T20:58:46.138Z,21.17
2023-09-09T21:01:13.350Z,20.63
2023-09-09T21:03:40.902Z,21.42
2023-09-09T21:06:08.524Z,19.85
2023-09-09T21:08:35.709Z,22.33
2023-09-09T21:11:02.679Z,22.08
2023-09-09T21:13:29.840Z,21.83
2023-09-09T21:15:56.998Z,20.90
2023-09-09T21:18:23.965Z,19.77
2023-09-09T21:20:51.070Z,19.45
2023-09-09T21:23:18.031Z,19.30
2023-09-09T21:25:44.989Z,18.63
2023-09-09T21:28:11.883Z,20.23
2023-09-09T21:30:41.024Z,19.65
2023-09-09T21:33:09.087Z,18.63
2023-09-09T21:35:36.158Z,17.40
2023-09-09T21:38:04.344Z,17.98
2023-09-09T21:40:31.486Z,19.05
2023-09-09T21:42:58.388Z,18.58
2023-09-09T21:45:25.485Z,18.50
2023-09-09T21:47:52.621Z,16.83
2023-09-09T21:50:19.819Z,17.70
2023-09-09T21:52:47.101Z,18.80
2023-09-09T21:55:14.074Z,17.88
2023-09-09T21:57:41.244Z,21.05
2023-09-09T22:00:21.525Z,19.55
2023-09-09T22:02:52.687Z,18.35
2023-09-09T22:05:21.071Z,17.38
2023-09-09T22:07:48.708Z,17.50
2023-09-09T22:10:15.801Z,18.67
2023-09-09T22:12:42.948Z,19.15
2023-09-09T22:15:13.200Z,19.92
2023-09-09T22:17:40.286Z,18.90
2023-09-09T22:20:09.945Z,19.02
2023-09-09T22:22:38.511Z,20.65
2023-09-09T22:25:10.675Z,18.80
2023-09-09T22:27:37.713Z,25.90
2023-09-09T22:30:07.041Z,20.20
2023-09-09T22:32:34.185Z,18.38
2023-09-09T22:35:07.322Z,19.70
2023-09-09T22:37:35.773Z,20.00
2023-09-09T22:40:03.185Z,20.08
2023-09-09T22:42:30.315Z,20.15
2023-09-09T22:44:57.316Z,21.58
2023-09-09T22:47:24.529Z,19.95
2023-09-09T22:49:53.652Z,19.88
2023-09-09T22:52:21.440Z,20.70
2023-09-09T22:54:48.602Z,22.70
2023-09-09T22:57:15.670Z,21.40
2023-09-09T22:59:42.944Z,22.48
2023-09-09T23:02:10.062Z,24.70
2023-09-09T23:04:37.198Z,23.25
2023-09-09T23:07:04.362Z,23.95
2023-09-09T23:09:31.870Z,22.58
2023-09-09T23:11:58.780Z,22.55
2023-09-09T23:14:25.869Z,22.05
2023-09-09T23:16:52.818Z,21.88
2023-09-09T23:19:19.745Z,21.73
2023-09-09T23:21:47.139Z,23.33
2023-09-09T23:24:14.044Z,22.20
2023-09-09T23:26:41.071Z,26.00
2023-09-09T23:29:07.984Z,24.30
2023-09-09T23:31:35.780Z,25.67
2023-09-09T23:34:03.394Z,25.63
2023-09-09T23:36:30.436Z,25.58
2023-09-09T23:39:05.296Z,27.73
2023-09-09T23:41:32.337Z,28.05
2023-09-09T23:43:59.277Z,25.42
2023-09-09T23:46:26.658Z,25.33
2023-09-09T23:48:53.581Z,26.40
2023-09-09T23:51:20.634Z,25.23
2023-09-09T23:53:47.752Z,27.65
2023-09-09T23:56:15.163Z,23.33
2023-09-09T23:58:42.287Z,31.83
